createdAt,value
2019-02-07T00:01:04.174Z,82.75
2019-02-07T00:03:32.091Z,77.65
2019-02-07T00:06:00.504Z,77.82
2019-02-07T00:08:28.594Z,76.50
2019-02-07T00:10:56.867Z,83.78
2019-02-07T00:13:24.791Z,78.70
2019-02-07T00:15:52.720Z,76.05
2019-02-07T00:18:20.639Z,78.55
2019-02-07T00:20:48.567Z,77.92
2019-02-07T00:23:16.966Z,77.17
2019-02-07T00:25:44.895Z,81.57
2019-02-07T00:28:13.058Z,80.53
2019-02-07T00:30:40.975Z,79.85
2019-02-07T00:33:08.908Z,81.17
2019-02-07T00:35:36.822Z,79.87
2019-02-07T00:38:04.757Z,73.52
2019-02-07T00:40:32.678Z,73.78
2019-02-07T00:43:00.610Z,78.12
2019-02-07T00:45:28.535Z,78.60
2019-02-07T00:47:56.458Z,78.17
2019-02-07T00:50:24.611Z,68.97
2019-02-07T00:52:52.540Z,77.53
2019-02-07T00:55:20.970Z,78.47
2019-02-07T00:57:48.905Z,72.85
2019-02-07T01:00:18.363Z,77.37
2019-02-07T01:02:46.279Z,72.47
2019-02-07T01:05:14.758Z,71.15
2019-02-07T01:07:42.750Z,78.33
2019-02-07T01:10:11.942Z,74.85
2019-02-07T01:12:40.163Z,69.15
2019-02-07T01:15:09.595Z,67.80
2019-02-07T01:17:37.515Z,76.02
2019-02-07T01:20:06.711Z,71.53
2019-02-07T01:22:34.631Z,75.32
2019-02-07T01:25:02.624Z,70.03
2019-02-07T01:27:30.923Z,74.35
2019-02-07T01:29:58.847Z,71.65
2019-02-07T01:32:27.021Z,73.92
2019-02-07T01:34:54.938Z,72.75
2019-02-07T01:37:23.091Z,71.12
2019-02-07T01:39:51.018Z,78.05
2019-02-07T01:42:18.942Z,70.28
2019-02-07T01:44:47.137Z,74.50
2019-02-07T01:47:15.062Z,69.75
2019-02-07T01:49:42.985Z,65.75
2019-02-07T01:52:10.911Z,72.37
2019-02-07T01:54:38.834Z,72.80
2019-02-07T01:57:06.759Z,72.05
2019-02-07T01:59:34.688Z,70.47
2019-02-07T02:02:03.010Z,70.67
2019-02-07T02:04:30.983Z,73.50
2019-02-07T02:06:59.187Z,69.37
2019-02-07T02:09:27.115Z,72.72
2019-02-07T02:11:55.035Z,72.12
2019-02-07T02:14:23.643Z,63.75
2019-02-07T02:16:51.563Z,70.87
2019-02-07T02:19:19.727Z,65.97
2019-02-07T02:21:47.647Z,70.90
2019-02-07T02:24:15.571Z,74.72
2019-02-07T02:26:43.499Z,74.30
2019-02-07T02:29:11.419Z,65.62
2019-02-07T02:31:39.347Z,68.65
2019-02-07T02:34:07.264Z,72.47
2019-02-07T02:36:35.235Z,71.35
2019-02-07T02:39:04.296Z,71.07
2019-02-07T02:41:33.588Z,72.95
2019-02-07T02:44:01.520Z,67.58
2019-02-07T02:46:29.447Z,70.32
2019-02-07T02:48:57.378Z,71.85
2019-02-07T02:51:25.684Z,75.08
2019-02-07T02:53:55.261Z,74.75
2019-02-07T02:56:23.175Z,75.03
2019-02-07T02:58:52.160Z,73.12
2019-02-07T03:01:24.663Z,74.35
2019-02-07T03:03:54.220Z,74.35
2019-02-07T03:06:24.079Z,68.28
2019-02-07T03:08:53.635Z,71.12
2019-02-07T03:11:39.794Z,75.57
2019-02-07T03:14:12.109Z,74.70
2019-02-07T03:16:44.752Z,68.15
2019-02-07T03:19:32.359Z,74.17
2019-02-07T03:22:11.942Z,70.47
2019-02-07T03:24:41.498Z,75.03
2019-02-07T03:27:13.503Z,71.37
2019-02-07T03:29:43.055Z,68.17
2019-02-07T03:32:21.438Z,72.37
2019-02-07T03:34:53.742Z,69.53
2019-02-07T03:37:29.791Z,71.40
2019-02-07T03:40:16.091Z,74.85
2019-02-07T03:43:02.322Z,75.57
2019-02-07T03:45:48.180Z,76.55
2019-02-07T03:48:17.742Z,78.65
2019-02-07T03:50:47.305Z,72.60
2019-02-07T03:53:33.255Z,74.90
2019-02-07T03:56:05.491Z,73.75
2019-02-07T03:58:35.297Z,77.12
2019-02-07T04:01:10.764Z,75.60
2019-02-07T04:03:43.760Z,76.20
2019-02-07T04:06:13.340Z,76.57
2019-02-07T04:08:42.909Z,77.75
2019-02-07T04:11:29.193Z,69.20
2019-02-07T04:14:04.771Z,71.05
2019-02-07T04:16:38.363Z,71.50
2019-02-07T04:19:24.270Z,71.07
2019-02-07T04:22:02.915Z,67.42
2019-02-07T04:24:32.473Z,71.05
2019-02-07T04:27:02.039Z,68.35
2019-02-07T04:29:46.653Z,69.00
2019-02-07T04:32:21.879Z,72.03
2019-02-07T04:35:06.691Z,70.52
2019-02-07T04:37:36.261Z,75.72
2019-02-07T04:40:08.028Z,73.57
2019-02-07T04:42:40.325Z,67.12
2019-02-07T04:45:12.866Z,76.42
2019-02-07T04:47:58.839Z,72.35
2019-02-07T04:50:45.076Z,69.42
2019-02-07T04:53:14.660Z,70.35
2019-02-07T04:55:59.255Z,68.12
2019-02-07T04:58:31.725Z,71.57
2019-02-07T05:01:07.343Z,70.80
2019-02-07T05:03:48.835Z,72.85
2019-02-07T05:06:27.311Z,66.82
2019-02-07T05:09:14.891Z,74.72
2019-02-07T05:11:50.435Z,73.80
2019-02-07T05:14:22.637Z,70.87
2019-02-07T05:17:08.786Z,77.62
2019-02-07T05:19:54.483Z,67.97
2019-02-07T05:22:24.036Z,70.00
2019-02-07T05:25:05.626Z,69.75
2019-02-07T05:27:38.591Z,67.50
2019-02-07T05:30:12.364Z,66.25
2019-02-07T05:32:50.605Z,72.55
2019-02-07T05:35:23.347Z,69.85
2019-02-07T05:37:55.864Z,70.50
2019-02-07T05:40:25.435Z,69.77
2019-02-07T05:43:11.320Z,66.92
2019-02-07T05:45:40.891Z,68.45
2019-02-07T05:48:10.451Z,69.35
2019-02-07T05:50:40.014Z,72.65
2019-02-07T05:53:24.952Z,71.57
2019-02-07T05:55:54.508Z,69.05
2019-02-07T05:58:40.433Z,71.72
2019-02-07T06:01:13.903Z,70.40
2019-02-07T06:03:50.143Z,68.37
2019-02-07T06:06:25.334Z,67.62
2019-02-07T06:08:58.056Z,72.03
2019-02-07T06:11:30.315Z,70.95
2019-02-07T06:13:59.875Z,70.95
2019-02-07T06:16:46.178Z,73.30
2019-02-07T06:19:19.024Z,76.60
2019-02-07T06:21:51.260Z,78.85
2019-02-07T06:24:29.575Z,75.97
2019-02-07T06:27:14.138Z,75.85
2019-02-07T06:29:49.848Z,74.25
2019-02-07T06:32:22.130Z,77.50
2019-02-07T06:35:06.971Z,71.17
2019-02-07T06:37:37.016Z,83.03
2019-02-07T06:40:20.451Z,77.10
2019-02-07T06:42:50.007Z,75.12
2019-02-07T06:45:19.787Z,72.25
2019-02-07T06:47:52.277Z,77.55
2019-02-07T06:50:22.062Z,84.90
2019-02-07T06:52:51.623Z,79.10
2019-02-07T06:55:26.862Z,74.32
2019-02-07T06:57:59.351Z,82.62
2019-02-07T07:00:45.451Z,76.17
2019-02-07T07:03:17.947Z,77.85
2019-02-07T07:06:05.485Z,79.75
2019-02-07T07:08:38.248Z,79.75
2019-02-07T07:11:11.176Z,81.63
2019-02-07T07:13:46.452Z,81.90
2019-02-07T07:16:32.460Z,84.28
2019-02-07T07:19:04.963Z,81.70
2019-02-07T07:21:40.463Z,86.20
2019-02-07T07:24:10.019Z,84.85
2019-02-07T07:26:56.184Z,83.42
2019-02-07T07:29:25.751Z,85.25
2019-02-07T07:32:11.882Z,86.75
2019-02-07T07:34:53.620Z,83.45
2019-02-07T07:37:26.126Z,80.30
2019-02-07T07:40:12.369Z,82.95
2019-02-07T07:42:58.279Z,77.27
2019-02-07T07:45:33.627Z,78.17
2019-02-07T07:48:03.196Z,88.62
2019-02-07T07:50:32.751Z,84.47
2019-02-07T07:53:02.635Z,90.77
2019-02-07T07:55:35.507Z,87.65
2019-02-07T07:58:05.303Z,87.45
2019-02-07T08:00:51.164Z,94.30
2019-02-07T08:03:20.727Z,92.20
2019-02-07T08:05:56.687Z,88.03
2019-02-07T08:08:32.427Z,89.92
2019-02-07T08:11:08.152Z,81.12
2019-02-07T08:13:54.209Z,84.95
2019-02-07T08:16:32.922Z,92.90
2019-02-07T08:19:18.759Z,84.00
2019-02-07T08:21:51.235Z,80.85
2019-02-07T08:24:26.920Z,79.40
2019-02-07T08:26:59.372Z,79.27
2019-02-07T08:29:28.955Z,80.12
2019-02-07T08:32:01.258Z,80.12
2019-02-07T08:34:36.626Z,87.45
2019-02-07T08:37:12.296Z,89.62
2019-02-07T08:39:48.083Z,86.65
2019-02-07T08:42:29.801Z,90.22
2019-02-07T08:45:02.326Z,90.00
2019-02-07T08:47:41.247Z,94.32
2019-02-07T08:50:27.027Z,91.72
2019-02-07T08:52:56.779Z,86.32
2019-02-07T08:55:43.141Z,86.70
2019-02-07T08:58:24.603Z,94.03
2019-02-07T09:00:54.183Z,91.57
2019-02-07T09:03:23.759Z,92.97
2019-02-07T09:05:53.571Z,87.00
2019-02-07T09:08:23.147Z,95.72
2019-02-07T09:10:52.939Z,91.05
2019-02-07T09:13:39.296Z,102.58
2019-02-07T09:16:18.389Z,92.37
2019-02-07T09:19:00.291Z,104.75
2019-02-07T09:21:29.854Z,99.77
2019-02-07T09:23:59.427Z,103.32
2019-02-07T09:26:45.584Z,99.97
2019-02-07T09:29:31.769Z,106.83
2019-02-07T09:32:13.898Z,116.55
2019-02-07T09:34:43.759Z,98.58
2019-02-07T09:37:29.730Z,107.58
2019-02-07T09:40:11.691Z,106.30
2019-02-07T09:42:44.356Z,100.65
2019-02-07T09:45:24.656Z,108.25
2019-02-07T09:47:54.219Z,108.90
2019-02-07T09:50:23.791Z,100.72
2019-02-07T09:52:59.452Z,103.53
2019-02-07T09:55:34.959Z,103.22
2019-02-07T09:58:07.704Z,117.42
2019-02-07T10:00:40.554Z,106.77
2019-02-07T10:03:10.375Z,106.40
2019-02-07T10:05:58.210Z,99.17
2019-02-07T10:08:28.028Z,110.03
2019-02-07T10:11:06.855Z,104.03
2019-02-07T10:13:39.251Z,116.75
2019-02-07T10:16:17.588Z,110.32
2019-02-07T10:19:03.418Z,125.22
2019-02-07T10:21:39.041Z,107.63
2019-02-07T10:24:17.699Z,116.80
2019-02-07T10:26:57.492Z,107.35
2019-02-07T10:29:27.059Z,115.90
2019-02-07T10:31:59.660Z,107.10
2019-02-07T10:34:38.211Z,110.97
2019-02-07T10:37:17.252Z,112.08
2019-02-07T10:40:02.234Z,123.65
2019-02-07T10:42:37.627Z,132.52
2019-02-07T10:45:25.049Z,119.25
2019-02-07T10:47:54.613Z,125.62
2019-02-07T10:50:36.519Z,119.93
2019-02-07T10:53:14.928Z,119.17
2019-02-07T10:56:01.479Z,118.77
2019-02-07T10:58:34.054Z,123.10
2019-02-07T11:01:03.859Z,122.13
2019-02-07T11:03:39.674Z,121.17
2019-02-07T11:06:18.591Z,120.67
2019-02-07T11:08:54.107Z,137.82
2019-02-07T11:11:23.912Z,130.10
2019-02-07T11:13:56.247Z,125.30
2019-02-07T11:16:32.187Z,121.37
2019-02-07T11:19:21.475Z,117.82
2019-02-07T11:21:52.143Z,128.30
2019-02-07T11:24:28.847Z,114.88
2019-02-07T11:27:01.379Z,118.50
2019-02-07T11:29:39.976Z,126.10
2019-02-07T11:32:12.455Z,130.47
2019-02-07T11:34:54.375Z,132.80
2019-02-07T11:37:35.896Z,122.30
2019-02-07T11:40:23.167Z,127.92
2019-02-07T11:43:04.911Z,139.68
2019-02-07T11:45:34.490Z,140.52
2019-02-07T11:48:04.287Z,129.82
2019-02-07T11:50:50.842Z,134.60
2019-02-07T11:53:29.287Z,128.78
2019-02-07T11:55:58.875Z,113.68
2019-02-07T11:58:31.651Z,120.87
2019-02-07T12:01:17.803Z,125.30
2019-02-07T12:03:47.379Z,138.45
2019-02-07T12:06:30.098Z,125.60
2019-02-07T12:08:59.643Z,130.67
2019-02-07T12:11:37.956Z,128.60
2019-02-07T12:14:13.122Z,140.82
2019-02-07T12:16:42.691Z,128.75
2019-02-07T12:19:18.047Z,132.87
2019-02-07T12:21:43.547Z,124.42
2019-02-07T12:24:28.546Z,134.05
2019-02-07T12:27:01.132Z,132.67
2019-02-07T12:29:42.935Z,129.40
2019-02-07T12:32:15.503Z,133.72
2019-02-07T12:35:02.059Z,138.37
2019-02-07T12:37:31.699Z,148.78
2019-02-07T12:40:01.264Z,138.35
2019-02-07T12:42:30.895Z,148.60
2019-02-07T12:45:03.283Z,142.82
2019-02-07T12:47:33.089Z,145.43
2019-02-07T12:50:20.731Z,138.47
2019-02-07T12:53:06.676Z,142.35
2019-02-07T12:55:52.331Z,143.45
2019-02-07T12:58:17.267Z,147.82
2019-02-07T13:01:03.600Z,146.35
2019-02-07T13:03:39.479Z,145.53
2019-02-07T13:06:18.831Z,144.47
2019-02-07T13:08:54.184Z,142.72
2019-02-07T13:11:32.782Z,140.82
2019-02-07T13:14:17.627Z,138.18
2019-02-07T13:16:56.458Z,141.22
2019-02-07T13:19:26.059Z,150.32
2019-02-07T13:21:58.687Z,143.43
2019-02-07T13:24:37.415Z,145.95
2019-02-07T13:27:07.164Z,144.53
2019-02-07T13:29:36.818Z,142.22
2019-02-07T13:32:09.397Z,147.17
2019-02-07T13:34:44.967Z,138.00
2019-02-07T13:37:14.534Z,137.70
2019-02-07T13:39:50.452Z,145.80
2019-02-07T13:42:36.563Z,141.10
2019-02-07T13:45:24.060Z,144.07
2019-02-07T13:47:53.858Z,149.32
2019-02-07T13:50:32.277Z,142.15
2019-02-07T13:53:03.627Z,138.50
2019-02-07T13:55:42.426Z,140.10
2019-02-07T13:58:20.824Z,140.45
2019-02-07T14:00:53.376Z,142.13
2019-02-07T14:03:39.723Z,139.50
2019-02-07T14:06:09.311Z,127.85
2019-02-07T14:08:39.112Z,137.85
2019-02-07T14:11:26.986Z,136.77
2019-02-07T14:14:08.359Z,134.60
2019-02-07T14:16:37.932Z,136.57
2019-02-07T14:19:26.063Z,135.55
2019-02-07T14:22:04.637Z,126.33
2019-02-07T14:24:51.951Z,128.75
2019-02-07T14:27:24.289Z,140.57
2019-02-07T14:30:09.175Z,139.90
2019-02-07T14:32:55.448Z,134.97
2019-02-07T14:35:35.207Z,134.32
2019-02-07T14:38:23.162Z,129.27
2019-02-07T14:40:58.907Z,134.10
2019-02-07T14:43:31.528Z,123.97
2019-02-07T14:46:04.323Z,120.53
2019-02-07T14:48:32.487Z,132.87
2019-02-07T14:51:00.424Z,122.95
2019-02-07T14:53:28.580Z,116.42
2019-02-07T14:55:56.516Z,127.72
2019-02-07T14:58:24.451Z,122.02
2019-02-07T15:00:52.389Z,118.40
2019-02-07T15:03:20.539Z,125.05
2019-02-07T15:05:48.484Z,121.72
2019-02-07T15:08:16.429Z,115.80
2019-02-07T15:10:44.594Z,126.25
2019-02-07T15:13:12.532Z,128.82
2019-02-07T15:15:40.691Z,129.30
2019-02-07T15:18:08.634Z,127.90
2019-02-07T15:20:36.646Z,130.85
2019-02-07T15:23:04.796Z,122.40
2019-02-07T15:25:32.987Z,131.22
2019-02-07T15:28:01.191Z,136.52
2019-02-07T15:30:29.199Z,143.60
2019-02-07T15:32:57.124Z,134.45
2019-02-07T15:35:32.875Z,142.50
2019-02-07T15:38:00.799Z,126.78
2019-02-07T15:40:28.737Z,136.92
2019-02-07T15:42:56.923Z,139.52
2019-02-07T15:45:25.084Z,138.15
2019-02-07T15:47:53.023Z,121.55
2019-02-07T15:50:21.977Z,133.35
2019-02-07T15:52:52.162Z,123.80
2019-02-07T15:55:20.355Z,125.82
2019-02-07T15:57:48.331Z,130.45
2019-02-07T16:00:21.855Z,119.93
2019-02-07T16:02:51.101Z,119.30
2019-02-07T16:05:19.287Z,116.30
2019-02-07T16:07:47.839Z,108.03
2019-02-07T16:10:17.034Z,108.32
2019-02-07T16:12:44.963Z,107.67
2019-02-07T16:15:12.976Z,109.90
2019-02-07T16:17:41.146Z,119.70
2019-02-07T16:20:10.936Z,117.20
2019-02-07T16:22:38.931Z,121.62
2019-02-07T16:25:08.500Z,111.97
2019-02-07T16:27:36.423Z,115.52
2019-02-07T16:30:06.301Z,126.15
2019-02-07T16:32:34.395Z,123.07
2019-02-07T16:35:02.339Z,122.92
2019-02-07T16:37:30.538Z,127.02
2019-02-07T16:39:59.144Z,128.35
2019-02-07T16:42:27.321Z,111.05
2019-02-07T16:44:55.248Z,137.32
2019-02-07T16:47:23.181Z,147.22
2019-02-07T16:49:51.124Z,148.28
2019-02-07T16:52:19.043Z,147.37
2019-02-07T16:54:47.007Z,153.20
2019-02-07T16:57:15.255Z,157.82
2019-02-07T16:59:43.183Z,134.63
2019-02-07T17:02:11.115Z,130.97
2019-02-07T17:04:39.039Z,168.05
2019-02-07T17:07:06.975Z,147.05
2019-02-07T17:09:35.768Z,158.07
2019-02-07T17:12:04.775Z,183.20
2019-02-07T17:14:32.704Z,172.07
2019-02-07T17:17:00.655Z,166.43
2019-02-07T17:19:28.574Z,168.57
2019-02-07T17:21:56.506Z,171.75
2019-02-07T17:24:24.438Z,228.22
2019-02-07T17:26:52.368Z,212.90
2019-02-07T17:29:20.675Z,187.03
2019-02-07T17:31:48.595Z,203.15
2019-02-07T17:34:16.529Z,203.70
2019-02-07T17:36:44.449Z,227.57
2019-02-07T17:39:12.613Z,237.00
2019-02-07T17:41:40.881Z,255.87
2019-02-07T17:44:08.799Z,201.75
2019-02-07T17:46:37.351Z,291.47
2019-02-07T17:49:05.500Z,242.32
2019-02-07T17:51:34.113Z,194.87
2019-02-07T17:54:02.022Z,199.42
2019-02-07T17:56:30.123Z,245.37
2019-02-07T17:58:58.053Z,216.45
2019-02-07T18:01:26.034Z,226.88
2019-02-07T18:03:54.664Z,230.32
2019-02-07T18:06:22.874Z,253.60
2019-02-07T18:08:50.790Z,432.47
2019-02-07T18:11:19.131Z,292.15
2019-02-07T18:13:47.305Z,328.65
2019-02-07T18:16:15.463Z,337.42
2019-02-07T18:18:43.394Z,320.25
2019-02-07T18:21:12.663Z,285.32
2019-02-07T18:23:40.593Z,264.88
2019-02-07T18:26:08.752Z,205.22
2019-02-07T18:28:36.691Z,205.32
2019-02-07T18:31:04.851Z,157.15
2019-02-07T18:33:32.784Z,140.22
2019-02-07T18:36:00.715Z,133.82
2019-02-07T18:38:28.823Z,146.80
2019-02-07T18:40:56.755Z,162.40
2019-02-07T18:43:25.051Z,158.37
2019-02-07T18:45:52.980Z,140.75
2019-02-07T18:48:21.139Z,142.80
2019-02-07T18:50:50.564Z,146.93
2019-02-07T18:53:18.723Z,140.40
2019-02-07T18:55:46.655Z,146.37
2019-02-07T18:58:14.579Z,224.35
2019-02-07T19:00:42.508Z,125.50
2019-02-07T19:03:10.427Z,115.75
2019-02-07T19:05:39.427Z,97.42
2019-02-07T19:08:07.355Z,120.17
2019-02-07T19:10:35.307Z,139.30
2019-02-07T19:13:03.287Z,90.62
2019-02-07T19:15:34.151Z,95.50
2019-02-07T19:18:02.084Z,78.70
2019-02-07T19:20:30.316Z,92.35
2019-02-07T19:22:58.251Z,101.15
2019-02-07T19:25:27.155Z,80.60
2019-02-07T19:27:55.566Z,87.85
2019-02-07T19:30:27.037Z,101.75
2019-02-07T19:32:55.413Z,112.30
2019-02-07T19:35:23.336Z,95.47
2019-02-07T19:37:52.404Z,101.78
2019-02-07T19:40:21.759Z,112.75
2019-02-07T19:42:49.756Z,107.45
2019-02-07T19:45:19.791Z,106.40
2019-02-07T19:47:48.240Z,100.38
2019-02-07T19:50:21.090Z,102.67
2019-02-07T19:52:49.013Z,105.58
2019-02-07T19:55:18.252Z,92.53
2019-02-07T19:57:46.243Z,94.07
2019-02-07T20:00:18.827Z,105.58
2019-02-07T20:02:47.060Z,94.32
2019-02-07T20:05:15.235Z,99.92
2019-02-07T20:07:43.455Z,120.13
2019-02-07T20:10:13.012Z,98.00
2019-02-07T20:12:42.496Z,125.38
2019-02-07T20:15:15.567Z,88.30
2019-02-07T20:17:43.802Z,90.17
2019-02-07T20:20:12.999Z,113.22
2019-02-07T20:22:40.939Z,107.50
2019-02-07T20:25:10.203Z,119.70
2019-02-07T20:27:38.135Z,127.10
2019-02-07T20:30:14.143Z,141.50
2019-02-07T20:32:42.148Z,134.50
2019-02-07T20:35:10.311Z,132.10
2019-02-07T20:37:38.312Z,146.68
2019-02-07T20:40:07.983Z,127.45
2019-02-07T20:42:36.221Z,133.05
2019-02-07T20:45:05.813Z,127.40
2019-02-07T20:47:35.049Z,117.03
2019-02-07T20:50:04.047Z,123.13
2019-02-07T20:52:33.615Z,132.57
2019-02-07T20:55:01.605Z,122.95
2019-02-07T20:57:29.603Z,115.77
2019-02-07T20:59:57.534Z,112.77
2019-02-07T21:02:25.683Z,123.75
2019-02-07T21:04:53.683Z,131.93
2019-02-07T21:07:23.669Z,130.80
2019-02-07T21:09:51.594Z,141.50
2019-02-07T21:12:19.550Z,152.43
2019-02-07T21:14:47.707Z,148.72
2019-02-07T21:17:15.636Z,140.25
2019-02-07T21:19:43.596Z,208.63
2019-02-07T21:22:11.519Z,127.35
2019-02-07T21:24:40.911Z,115.62
2019-02-07T21:27:09.096Z,126.35
2019-02-07T21:29:37.255Z,133.22
2019-02-07T21:32:05.223Z,110.88
2019-02-07T21:34:33.216Z,113.10
2019-02-07T21:37:01.211Z,113.47
2019-02-07T21:39:29.501Z,119.90
2019-02-07T21:41:57.478Z,96.37
2019-02-07T21:44:25.418Z,115.22
2019-02-07T21:46:53.485Z,119.90
2019-02-07T21:49:21.416Z,129.05
2019-02-07T21:51:49.414Z,110.78
2019-02-07T21:54:17.575Z,111.08
2019-02-07T21:56:45.571Z,95.97
2019-02-07T21:59:13.487Z,86.35
2019-02-07T22:01:41.863Z,95.80
2019-02-07T22:04:09.778Z,82.12
2019-02-07T22:06:37.892Z,98.47
2019-02-07T22:09:07.507Z,109.40
2019-02-07T22:11:36.228Z,98.62
2019-02-07T22:14:04.160Z,113.30
2019-02-07T22:16:32.093Z,132.67
2019-02-07T22:19:00.019Z,114.97
2019-02-07T22:21:28.183Z,111.17
2019-02-07T22:23:56.351Z,130.32
2019-02-07T22:26:24.276Z,111.52
2019-02-07T22:28:52.208Z,139.03
2019-02-07T22:31:20.133Z,123.67
2019-02-07T22:33:48.139Z,129.45
2019-02-07T22:36:16.295Z,110.12
2019-02-07T22:38:44.225Z,95.30
2019-02-07T22:41:12.372Z,97.80
2019-02-07T22:43:40.520Z,96.90
2019-02-07T22:46:08.524Z,97.15
2019-02-07T22:48:36.445Z,99.42
2019-02-07T22:51:04.370Z,92.82
2019-02-07T22:53:32.470Z,88.10
2019-02-07T22:56:00.390Z,87.53
2019-02-07T22:58:28.547Z,88.67
2019-02-07T23:00:58.135Z,98.17
2019-02-07T23:03:26.351Z,85.30
2019-02-07T23:05:55.627Z,102.53
2019-02-07T23:08:23.730Z,99.30
2019-02-07T23:10:51.663Z,100.87
2019-02-07T23:13:19.824Z,118.70
2019-02-07T23:15:48.009Z,85.15
2019-02-07T23:18:15.927Z,107.67
2019-02-07T23:20:43.851Z,89.60
2019-02-07T23:23:11.791Z,91.95
2019-02-07T23:25:40.200Z,94.05
2019-02-07T23:28:08.118Z,90.55
2019-02-07T23:30:36.052Z,103.32
2019-02-07T23:33:04.647Z,114.50
2019-02-07T23:35:32.586Z,114.40
2019-02-07T23:38:00.511Z,154.23
2019-02-07T23:40:28.463Z,167.62
2019-02-07T23:42:56.991Z,79.55
2019-02-07T23:45:24.922Z,91.17
2019-02-07T23:47:52.839Z,78.42
2019-02-07T23:50:20.783Z,84.72
2019-02-07T23:52:48.698Z,72.72
2019-02-07T23:55:16.631Z,78.87
2019-02-07T23:57:44.798Z,78.25
